createdAt,value
2022-11-27T00:01:35.242Z,101938.63
2022-11-27T00:04:03.844Z,101930.72
2022-11-27T00:06:34.051Z,101935.22
2022-11-27T00:09:08.849Z,101941.22
2022-11-27T00:11:39.545Z,101931.19
2022-11-27T00:14:08.083Z,101937.31
2022-11-27T00:16:36.322Z,101937.38
2022-11-27T00:19:04.993Z,101940.63
2022-11-27T00:21:35.996Z,101936.72
2022-11-27T00:24:06.106Z,101951.38
2022-11-27T00:26:38.099Z,101948.91
2022-11-27T00:29:07.032Z,101953.63
2022-11-27T00:31:37.742Z,101948.28
2022-11-27T00:34:08.347Z,101950.34
2022-11-27T00:36:38.568Z,101952.41
2022-11-27T00:39:07.259Z,101958.84
2022-11-27T00:41:36.048Z,101954.47
2022-11-27T00:44:04.555Z,101951.16
2022-11-27T00:46:33.973Z,101949.28
2022-11-27T00:49:03.966Z,101950.63
2022-11-27T00:51:32.296Z,101949.97
2022-11-27T00:54:02.292Z,101956.81
2022-11-27T00:56:32.377Z,101946.94
2022-11-27T00:59:00.748Z,101950.72
2022-11-27T01:01:30.393Z,101945.91
2022-11-27T01:03:59.553Z,101937.75
2022-11-27T01:06:28.760Z,101939.41
2022-11-27T01:08:57.253Z,101943.47
2022-11-27T01:11:30.063Z,101939.06
2022-11-27T01:13:59.988Z,101933.09
2022-11-27T01:16:29.980Z,101932.56
2022-11-27T01:19:00.363Z,101934.34
2022-11-27T01:21:30.575Z,101942.03
2022-11-27T01:23:58.793Z,101931.63
2022-11-27T01:26:28.595Z,101939.97
2022-11-27T01:28:58.197Z,101929.41
2022-11-27T01:31:28.143Z,101939.94
2022-11-27T01:33:59.048Z,101923.69
2022-11-27T01:36:27.604Z,101938.69
2022-11-27T01:38:56.016Z,101939.94
2022-11-27T01:41:26.143Z,101933.38
2022-11-27T01:43:58.376Z,101932.66
2022-11-27T01:46:34.677Z,101929.63
2022-11-27T01:49:13.789Z,101930.94
2022-11-27T01:51:45.916Z,101940.78
2022-11-27T01:54:15.052Z,101926.38
2022-11-27T01:56:45.301Z,101931.63
2022-11-27T01:59:15.106Z,101927.66
2022-11-27T02:01:43.418Z,101928.41
2022-11-27T02:04:11.716Z,101926.88
2022-11-27T02:06:40.043Z,101931.94
2022-11-27T02:09:08.387Z,101943.47
2022-11-27T02:11:44.599Z,101933.31
2022-11-27T02:14:18.024Z,101932.34
2022-11-27T02:16:48.116Z,101932.19
2022-11-27T02:19:26.469Z,101932.91
2022-11-27T02:21:59.053Z,101929.69
2022-11-27T02:24:48.676Z,101933.94
2022-11-27T02:27:35.290Z,101939.59
2022-11-27T02:30:07.355Z,101939.78
2022-11-27T02:32:39.668Z,101940.25
2022-11-27T02:35:11.800Z,101947.72
2022-11-27T02:37:46.512Z,101948.06
2022-11-27T02:40:17.641Z,101940.25
2022-11-27T02:42:49.362Z,101944.69
2022-11-27T02:45:23.747Z,101958.81
2022-11-27T02:47:52.129Z,101957.91
2022-11-27T02:50:22.721Z,101953.03
2022-11-27T02:52:53.201Z,101948.97
2022-11-27T02:55:25.374Z,101956.28
2022-11-27T02:57:55.295Z,101946.75
2022-11-27T03:00:25.120Z,101957.03
2022-11-27T03:02:58.294Z,101956.19
2022-11-27T03:05:29.085Z,101966.13
2022-11-27T03:08:01.462Z,101958.00
2022-11-27T03:10:33.333Z,101961.97
2022-11-27T03:13:02.354Z,101955.84
2022-11-27T03:15:38.994Z,101966.75
2022-11-27T03:18:13.993Z,101954.25
2022-11-27T03:20:44.643Z,101963.00
2022-11-27T03:23:12.894Z,101969.69
2022-11-27T03:25:41.237Z,101956.69
2022-11-27T03:28:11.603Z,101961.53
2022-11-27T03:30:42.411Z,101950.28
2022-11-27T03:33:10.840Z,101967.50
2022-11-27T03:35:39.024Z,101960.22
2022-11-27T03:38:07.398Z,101963.63
2022-11-27T03:40:40.847Z,101958.50
2022-11-27T03:43:13.092Z,101959.22
2022-11-27T03:45:48.762Z,101962.91
2022-11-27T03:48:24.503Z,101963.78
2022-11-27T03:51:02.428Z,101959.81
2022-11-27T03:53:38.990Z,101964.19
2022-11-27T03:56:11.068Z,101962.19
2022-11-27T03:58:42.597Z,101955.78
2022-11-27T04:01:13.492Z,101959.03
2022-11-27T04:03:41.871Z,101959.03
2022-11-27T04:06:10.288Z,101952.03
2022-11-27T04:08:38.436Z,101956.47
2022-11-27T04:11:06.864Z,101962.63
2022-11-27T04:13:35.109Z,101963.50
2022-11-27T04:16:03.925Z,101960.41
2022-11-27T04:18:33.688Z,101958.03
2022-11-27T04:21:02.090Z,101965.41
2022-11-27T04:23:30.254Z,101958.75
2022-11-27T04:25:58.436Z,101967.09
2022-11-27T04:28:26.751Z,101968.66
2022-11-27T04:30:55.297Z,101972.91
2022-11-27T04:33:23.906Z,101966.59
2022-11-27T04:35:53.710Z,101972.56
2022-11-27T04:38:22.776Z,101966.94
2022-11-27T04:40:52.696Z,101964.34
2022-11-27T04:43:21.028Z,101967.81
2022-11-27T04:45:49.287Z,101968.31
2022-11-27T04:48:17.775Z,101963.22
2022-11-27T04:50:46.189Z,101970.34
2022-11-27T04:53:15.829Z,101976.00
2022-11-27T04:55:44.008Z,101976.00
2022-11-27T04:58:12.321Z,101975.16
2022-11-27T05:00:40.631Z,101977.38
2022-11-27T05:03:09.209Z,101974.47
2022-11-27T05:05:37.480Z,101984.75
2022-11-27T05:08:06.203Z,101976.41
2022-11-27T05:10:35.827Z,101978.75
2022-11-27T05:13:04.145Z,101980.78
2022-11-27T05:15:32.360Z,101982.34
2022-11-27T05:18:00.518Z,101975.88
2022-11-27T05:20:29.004Z,101976.41
2022-11-27T05:22:57.340Z,101973.38
2022-11-27T05:25:25.583Z,101962.78
2022-11-27T05:27:55.319Z,101967.72
2022-11-27T05:30:23.511Z,101970.25
2022-11-27T05:32:51.736Z,101980.00
2022-11-27T05:35:20.401Z,101978.16
2022-11-27T05:37:48.689Z,101970.94
2022-11-27T05:40:17.074Z,101971.97
2022-11-27T05:42:45.401Z,101978.47
2022-11-27T05:45:14.917Z,101978.16
2022-11-27T05:47:43.173Z,101975.59
2022-11-27T05:50:11.676Z,101977.84
2022-11-27T05:52:40.084Z,101976.47
2022-11-27T05:55:09.191Z,101978.03
2022-11-27T05:57:37.449Z,101977.88
2022-11-27T06:00:07.146Z,101972.09
2022-11-27T06:02:36.950Z,101980.59
2022-11-27T06:05:05.744Z,101978.03
2022-11-27T06:07:34.060Z,101976.84
2022-11-27T06:10:02.307Z,101978.22
2022-11-27T06:12:32.771Z,101982.81
2022-11-27T06:15:00.963Z,101993.94
2022-11-27T06:17:29.248Z,101990.03
2022-11-27T06:19:59.009Z,101994.63
2022-11-27T06:22:27.220Z,101988.16
2022-11-27T06:24:55.621Z,101987.13
2022-11-27T06:27:24.296Z,101990.88
2022-11-27T06:29:53.125Z,101989.53
2022-11-27T06:32:21.324Z,101995.34
2022-11-27T06:34:49.705Z,101993.81
2022-11-27T06:37:19.348Z,101988.00
2022-11-27T06:39:49.323Z,101989.88
2022-11-27T06:42:17.735Z,101991.75
2022-11-27T06:44:46.005Z,101986.28
2022-11-27T06:47:14.267Z,101990.91
2022-11-27T06:49:42.536Z,101990.75
2022-11-27T06:52:10.786Z,101986.50
2022-11-27T06:54:40.651Z,101997.41
2022-11-27T06:57:09.443Z,101987.88
2022-11-27T06:59:37.807Z,101992.97
2022-11-27T07:02:06.128Z,101993.31
2022-11-27T07:04:34.587Z,102002.03
2022-11-27T07:07:02.789Z,101998.09
2022-11-27T07:09:31.072Z,102005.78
2022-11-27T07:12:00.828Z,102006.63
2022-11-27T07:14:29.079Z,102009.88
2022-11-27T07:16:57.381Z,102006.31
2022-11-27T07:19:25.723Z,102008.03
2022-11-27T07:21:53.925Z,102006.66
2022-11-27T07:24:22.276Z,102005.63
2022-11-27T07:26:50.534Z,102009.38
2022-11-27T07:29:20.353Z,102010.75
2022-11-27T07:31:51.536Z,102006.28
2022-11-27T07:34:21.670Z,101996.88
2022-11-27T07:36:50.378Z,101991.09
2022-11-27T07:39:33.748Z,101994.31
2022-11-27T07:42:30.912Z,101997.03
2022-11-27T07:44:56.817Z,101993.44
2022-11-27T07:47:25.072Z,102001.31
2022-11-27T07:49:55.630Z,101998.34
2022-11-27T07:52:23.882Z,101994.88
2022-11-27T07:54:52.112Z,102000.34
2022-11-27T07:57:20.633Z,101991.09
2022-11-27T07:59:49.266Z,101997.19
2022-11-27T08:02:18.867Z,101992.56
2022-11-27T08:04:47.235Z,101990.00
2022-11-27T08:07:15.653Z,101984.16
2022-11-27T08:09:43.881Z,101985.66
2022-11-27T08:12:12.114Z,101993.22
2022-11-27T08:14:40.683Z,101994.19
2022-11-27T08:17:09.086Z,101991.44
2022-11-27T08:19:38.713Z,101998.59
2022-11-27T08:22:07.328Z,101985.28
2022-11-27T08:24:37.705Z,101989.84
2022-11-27T08:27:06.464Z,101992.78
2022-11-27T08:29:34.776Z,101989.72
2022-11-27T08:32:03.152Z,101996.06
2022-11-27T08:34:31.421Z,101987.03
2022-11-27T08:37:01.171Z,101995.59
2022-11-27T08:39:29.718Z,101998.97
2022-11-27T08:41:57.909Z,101995.59
2022-11-27T08:44:26.296Z,102000.53
2022-11-27T08:46:54.563Z,101995.81
2022-11-27T08:49:22.977Z,101997.75
2022-11-27T08:51:51.281Z,102003.00
2022-11-27T08:54:20.898Z,101995.91
2022-11-27T08:56:49.024Z,102004.34
2022-11-27T08:59:17.354Z,102003.44
2022-11-27T09:01:45.605Z,102009.94
2022-11-27T09:04:14.329Z,102005.41
2022-11-27T09:06:43.265Z,101992.78
2022-11-27T09:09:11.482Z,101989.34
2022-11-27T09:11:41.746Z,101995.91
2022-11-27T09:14:10.549Z,102004.03
2022-11-27T09:16:38.913Z,101992.53
2022-11-27T09:19:07.187Z,101991.78
2022-11-27T09:21:35.484Z,101997.19
2022-11-27T09:24:03.717Z,101982.13
2022-11-27T09:26:32.134Z,101991.13
2022-11-27T09:29:01.867Z,101990.09
2022-11-27T09:31:30.256Z,101982.16
2022-11-27T09:33:59.261Z,101991.63
2022-11-27T09:36:28.332Z,101977.19
2022-11-27T09:38:56.775Z,101993.22
2022-11-27T09:41:39.707Z,101991.69
2022-11-27T09:44:25.098Z,101982.34
2022-11-27T09:46:54.494Z,101984.50
2022-11-27T09:49:26.789Z,101991.28
2022-11-27T09:52:00.107Z,101985.59
2022-11-27T09:54:28.848Z,101993.56
2022-11-27T09:56:57.636Z,101997.00
2022-11-27T09:59:31.812Z,101992.56
2022-11-27T10:02:00.158Z,101994.94
2022-11-27T10:04:36.177Z,102001.75
2022-11-27T10:07:25.907Z,101999.41
2022-11-27T10:10:07.890Z,101992.16
2022-11-27T10:12:44.305Z,101993.13
2022-11-27T10:15:18.588Z,101998.72
2022-11-27T10:17:52.427Z,101997.19
2022-11-27T10:20:29.059Z,102003.81
2022-11-27T10:23:02.272Z,102006.88
2022-11-27T10:25:36.148Z,102000.59
2022-11-27T10:28:24.852Z,101998.72
2022-11-27T10:30:57.516Z,101997.47
2022-11-27T10:33:28.852Z,102002.28
2022-11-27T10:35:57.075Z,102011.53
2022-11-27T10:38:27.753Z,102008.63
2022-11-27T10:41:02.407Z,102013.25
2022-11-27T10:43:30.695Z,102013.97
2022-11-27T10:46:03.795Z,102015.41
2022-11-27T10:48:32.417Z,102002.06
2022-11-27T10:51:01.122Z,102008.03
2022-11-27T10:53:31.378Z,102010.94
2022-11-27T10:56:21.828Z,102007.56
2022-11-27T10:58:53.484Z,102012.97
2022-11-27T11:01:24.369Z,102002.94
2022-11-27T11:03:52.785Z,101994.19
2022-11-27T11:06:24.041Z,102001.06
2022-11-27T11:09:02.627Z,101994.22
2022-11-27T11:11:31.140Z,101986.03
2022-11-27T11:13:59.393Z,101996.97
2022-11-27T11:16:35.220Z,101999.38
2022-11-27T11:19:06.364Z,101998.00
2022-11-27T11:21:36.451Z,102008.97
2022-11-27T11:24:07.122Z,102001.47
2022-11-27T11:26:38.077Z,102024.34
2022-11-27T11:29:13.667Z,102011.03
2022-11-27T11:31:43.643Z,102025.25
2022-11-27T11:34:18.821Z,102023.53
2022-11-27T11:36:57.054Z,102017.06
2022-11-27T11:39:27.673Z,102020.66
2022-11-27T11:41:55.944Z,102027.66
2022-11-27T11:44:27.366Z,102021.34
2022-11-27T11:46:57.004Z,102028.00
2022-11-27T11:49:26.562Z,102021.50
2022-11-27T11:52:05.163Z,102021.34
2022-11-27T11:54:41.354Z,102037.38
2022-11-27T11:57:33.757Z,102044.06
2022-11-27T12:00:06.074Z,102043.19
2022-11-27T12:02:49.374Z,102034.66
2022-11-27T12:05:26.047Z,102041.81
2022-11-27T12:08:03.783Z,102042.53
2022-11-27T12:10:36.859Z,102043.88
2022-11-27T12:13:09.557Z,102040.13
2022-11-27T12:15:41.301Z,102043.88
2022-11-27T12:18:16.640Z,102039.81
2022-11-27T12:20:53.460Z,102030.41
2022-11-27T12:23:42.007Z,102037.75
2022-11-27T12:26:18.879Z,102035.16
2022-11-27T12:29:15.195Z,102030.06
2022-11-27T12:31:56.550Z,102033.63
2022-11-27T12:34:34.696Z,102035.88
2022-11-27T12:37:21.421Z,102041.34
2022-11-27T12:40:05.695Z,102038.25
2022-11-27T12:42:36.109Z,102047.66
2022-11-27T12:45:09.848Z,102037.03
2022-11-27T12:47:41.417Z,102033.28
2022-11-27T12:50:17.663Z,102037.59
2022-11-27T12:52:49.299Z,102045.09
2022-11-27T12:55:21.573Z,102043.88
2022-11-27T12:57:52.213Z,102051.75
2022-11-27T13:00:23.164Z,102046.97
2022-11-27T13:02:59.716Z,102052.06
2022-11-27T13:05:31.309Z,102050.56
2022-11-27T13:08:02.815Z,102053.28
2022-11-27T13:10:35.792Z,102044.06
2022-11-27T13:13:07.489Z,102038.91
2022-11-27T13:15:41.050Z,102046.28
2022-11-27T13:18:17.660Z,102051.75
2022-11-27T13:20:52.175Z,102048.69
2022-11-27T13:23:21.268Z,102046.28
2022-11-27T13:25:53.152Z,102045.94
2022-11-27T13:28:32.183Z,102045.25
2022-11-27T13:31:01.499Z,102048.31
2022-11-27T13:33:37.736Z,102038.75
2022-11-27T13:36:09.177Z,102039.47
2022-11-27T13:38:42.361Z,102040.13
2022-11-27T13:41:21.680Z,102033.44
2022-11-27T13:43:50.729Z,102042.88
2022-11-27T13:46:22.191Z,102031.59
2022-11-27T13:48:53.397Z,102032.78
2022-11-27T13:51:28.570Z,102048.31
2022-11-27T13:54:09.279Z,102044.06
2022-11-27T13:56:38.361Z,102051.41
2022-11-27T13:59:17.607Z,102047.31
2022-11-27T14:01:58.279Z,102053.09
2022-11-27T14:04:26.973Z,102055.50
2022-11-27T14:07:01.383Z,102051.91
2022-11-27T14:09:34.871Z,102050.72
2022-11-27T14:12:04.057Z,102063.00
2022-11-27T14:14:32.986Z,102055.66
2022-11-27T14:17:05.242Z,102062.69
2022-11-27T14:19:36.583Z,102059.25
2022-11-27T14:22:18.216Z,102064.72
2022-11-27T14:24:56.305Z,102051.56
2022-11-27T14:27:27.399Z,102060.47
2022-11-27T14:29:56.506Z,102062.34
2022-11-27T14:32:25.872Z,102063.72
2022-11-27T14:34:56.029Z,102062.34
2022-11-27T14:37:28.705Z,102062.84
2022-11-27T14:39:57.930Z,102066.09
2022-11-27T14:42:29.651Z,102063.34
2022-11-27T14:45:07.334Z,102065.75
2022-11-27T14:47:37.121Z,102067.81
2022-11-27T14:50:08.008Z,102064.03
2022-11-27T14:52:39.477Z,102066.25
2022-11-27T14:55:15.422Z,102059.97
2022-11-27T14:57:45.195Z,102064.38
2022-11-27T15:00:20.065Z,102071.91
2022-11-27T15:02:51.109Z,102071.72
2022-11-27T15:05:22.618Z,102062.66
2022-11-27T15:07:54.839Z,102063.72
2022-11-27T15:10:31.552Z,102062.50
2022-11-27T15:13:01.645Z,102064.03
2022-11-27T15:15:34.228Z,102064.38
2022-11-27T15:18:05.088Z,102065.75
2022-11-27T15:20:38.229Z,102066.75
2022-11-27T15:23:17.397Z,102058.75
2022-11-27T15:25:48.032Z,102050.34
2022-11-27T15:28:31.601Z,102066.09
2022-11-27T15:31:00.629Z,102061.28
2022-11-27T15:33:31.259Z,102053.09
2022-11-27T15:36:24.496Z,102062.16
2022-11-27T15:39:06.439Z,102062.84
2022-11-27T15:41:38.413Z,102052.78
2022-11-27T15:44:11.802Z,102058.91
2022-11-27T15:46:43.702Z,102059.41
2022-11-27T15:49:14.430Z,102063.53
2022-11-27T15:51:46.449Z,102066.09
2022-11-27T15:54:17.711Z,102080.47
2022-11-27T15:56:48.353Z,102068.16
2022-11-27T15:59:18.339Z,102068.81
2022-11-27T16:01:47.599Z,102059.25
2022-11-27T16:04:17.172Z,102077.03
2022-11-27T16:06:46.208Z,102076.00
2022-11-27T16:09:16.888Z,102080.63
2022-11-27T16:11:46.408Z,102081.47
2022-11-27T16:14:15.568Z,102083.16
2022-11-27T16:16:45.363Z,102077.03
2022-11-27T16:19:15.323Z,102085.72
2022-11-27T16:21:44.365Z,102081.63
2022-11-27T16:24:15.656Z,102077.88
2022-11-27T16:26:45.981Z,102079.41
2022-11-27T16:29:14.963Z,102080.75
2022-11-27T16:31:44.149Z,102082.50
2022-11-27T16:34:12.510Z,102089.31
2022-11-27T16:36:43.975Z,102097.84
2022-11-27T16:39:13.154Z,102087.44
2022-11-27T16:41:42.218Z,102091.03
2022-11-27T16:44:14.868Z,102094.06
2022-11-27T16:46:44.710Z,102091.34
2022-11-27T16:49:13.600Z,102096.81
2022-11-27T16:51:42.376Z,102094.78
2022-11-27T16:54:12.671Z,102097.50
2022-11-27T16:56:41.532Z,102095.13
2022-11-27T16:59:12.459Z,102094.28
2022-11-27T17:01:42.792Z,102101.59
2022-11-27T17:04:18.465Z,102106.72
2022-11-27T17:06:48.414Z,102102.47
2022-11-27T17:09:17.403Z,102108.78
2022-11-27T17:11:49.001Z,102108.09
2022-11-27T17:14:20.901Z,102111.53
2022-11-27T17:16:50.338Z,102108.09
2022-11-27T17:19:19.905Z,102096.16
2022-11-27T17:21:48.501Z,102100.22
2022-11-27T17:24:17.983Z,102107.41
2022-11-27T17:26:48.537Z,102105.84
2022-11-27T17:29:21.131Z,102098.53
2022-11-27T17:31:49.692Z,102101.94
2022-11-27T17:34:20.840Z,102090.69
2022-11-27T17:36:53.583Z,102102.97
2022-11-27T17:39:22.167Z,102097.50
2022-11-27T17:41:51.032Z,102098.84
2022-11-27T17:44:20.805Z,102097.81
2022-11-27T17:46:50.888Z,102103.63
2022-11-27T17:49:22.102Z,102103.63
2022-11-27T17:51:50.704Z,102101.59
2022-11-27T17:54:19.520Z,102105.50
2022-11-27T17:56:51.552Z,102104.50
2022-11-27T17:59:22.502Z,102108.44
2022-11-27T18:01:53.186Z,102110.81
2022-11-27T18:04:21.991Z,102106.72
2022-11-27T18:06:50.441Z,102107.03
2022-11-27T18:09:19.368Z,102114.53
2022-11-27T18:11:47.953Z,102114.91
2022-11-27T18:14:16.569Z,102119.53
2022-11-27T18:16:46.562Z,102115.25
2022-11-27T18:19:15.073Z,102116.94
2022-11-27T18:21:43.757Z,102123.25
2022-11-27T18:24:23.033Z,102110.81
2022-11-27T18:27:07.749Z,102111.47
2022-11-27T18:29:37.450Z,102122.09
2022-11-27T18:32:07.806Z,102115.25
2022-11-27T18:34:36.285Z,102110.44
2022-11-27T18:37:04.936Z,102113.88
2022-11-27T18:39:33.520Z,102118.31
2022-11-27T18:42:01.961Z,102111.81
2022-11-27T18:44:30.313Z,102107.56
2022-11-27T18:46:58.840Z,102114.19
2022-11-27T18:49:30.060Z,102116.63
2022-11-27T18:51:58.728Z,102114.03
2022-11-27T18:54:27.485Z,102112.53
2022-11-27T18:56:56.117Z,102118.28
2022-11-27T18:59:24.536Z,102110.78
2022-11-27T19:01:53.408Z,102124.47
2022-11-27T19:04:21.680Z,102118.34
2022-11-27T19:06:51.777Z,102122.41
2022-11-27T19:09:20.521Z,102120.34
2022-11-27T19:11:51.828Z,102117.28
2022-11-27T19:14:20.363Z,102119.84
2022-11-27T19:16:51.265Z,102110.44
2022-11-27T19:22:12.288Z,102111.47
2022-11-27T19:24:40.926Z,102112.50
2022-11-27T19:27:09.935Z,102109.78
2022-11-27T19:29:38.304Z,102114.91
2022-11-27T19:32:07.047Z,102122.09
2022-11-27T19:34:35.608Z,102112.84
2022-11-27T19:37:04.812Z,102120.38
2022-11-27T19:39:34.833Z,102123.09
2022-11-27T19:42:03.397Z,102120.38
2022-11-27T19:44:31.898Z,102130.09
2022-11-27T19:47:00.705Z,102112.84
2022-11-27T19:49:29.146Z,102125.50
2022-11-27T19:51:57.648Z,102117.28
2022-11-27T19:54:26.844Z,102123.25
2022-11-27T19:56:56.596Z,102121.09
2022-11-27T19:59:26.200Z,102127.91
2022-11-27T20:01:54.811Z,102129.97
2022-11-27T20:04:23.111Z,102126.88
2022-11-27T20:06:53.581Z,102122.78
2022-11-27T20:09:22.091Z,102123.13
2022-11-27T20:11:50.511Z,102128.44
2022-11-27T20:14:20.633Z,102125.19
2022-11-27T20:16:49.185Z,102129.28
2022-11-27T20:19:17.728Z,102134.25
2022-11-27T20:21:46.435Z,102127.72
2022-11-27T20:24:15.218Z,102134.06
2022-11-27T20:26:44.515Z,102133.19
2022-11-27T20:29:13.411Z,102128.78
2022-11-27T20:31:45.289Z,102140.56
2022-11-27T20:34:19.930Z,102139.22
2022-11-27T20:36:49.027Z,102155.78
2022-11-27T20:39:21.300Z,102146.22
2022-11-27T20:41:52.143Z,102151.34
2022-11-27T20:44:22.441Z,102151.19
2022-11-27T20:46:52.796Z,102145.34
2022-11-27T20:49:21.544Z,102149.09
2022-11-27T20:51:50.844Z,102152.53
2022-11-27T20:54:19.993Z,102157.66
2022-11-27T20:56:51.540Z,102154.56
2022-11-27T20:59:20.231Z,102154.91
2022-11-27T21:01:48.953Z,102160.03
2022-11-27T21:04:24.571Z,102159.72
2022-11-27T21:06:53.006Z,102162.47
2022-11-27T21:09:21.876Z,102158.03
2022-11-27T21:11:50.255Z,102153.56
2022-11-27T21:14:18.598Z,102153.75
2022-11-27T21:16:48.845Z,102154.44
2022-11-27T21:19:19.756Z,102165.88
2022-11-27T21:21:49.748Z,102158.69
2022-11-27T21:24:18.570Z,102161.44
2022-11-27T21:26:47.398Z,102162.97
2022-11-27T21:29:16.325Z,102162.81
2022-11-27T21:31:47.166Z,102162.13
2022-11-27T21:34:16.425Z,102169.97
2022-11-27T21:36:44.644Z,102173.72
2022-11-27T21:39:20.523Z,102170.84
2022-11-27T21:41:50.223Z,102169.31
2022-11-27T21:44:18.913Z,102176.81
2022-11-27T21:46:47.521Z,102169.63
2022-11-27T21:49:16.794Z,102180.56
2022-11-27T21:51:45.083Z,102172.34
2022-11-27T21:54:16.169Z,102169.63
2022-11-27T21:56:44.408Z,102172.03
2022-11-27T21:59:14.552Z,102170.16
2022-11-27T22:01:45.153Z,102173.91
2022-11-27T22:04:13.531Z,102174.78
2022-11-27T22:06:43.213Z,102180.25
2022-11-27T22:09:15.345Z,102175.28
2022-11-27T22:11:46.271Z,102186.38
2022-11-27T22:14:15.855Z,102180.09
2022-11-27T22:16:46.385Z,102177.53
2022-11-27T22:19:15.627Z,102179.88
2022-11-27T22:21:44.640Z,102190.13
2022-11-27T22:24:18.513Z,102189.28
2022-11-27T22:26:49.077Z,102187.44
2022-11-27T22:29:17.538Z,102196.66
2022-11-27T22:31:46.116Z,102183.97
2022-11-27T22:34:14.347Z,102190.16
2022-11-27T22:36:42.785Z,102189.47
2022-11-27T22:39:11.055Z,102186.25
2022-11-27T22:41:41.545Z,102181.41
2022-11-27T22:44:13.201Z,102184.84
2022-11-27T22:46:42.531Z,102184.34
2022-11-27T22:49:12.815Z,102179.72
2022-11-27T22:51:41.311Z,102186.38
2022-11-27T22:54:11.735Z,102185.50
2022-11-27T22:56:40.166Z,102186.88
2022-11-27T23:01:58.629Z,102193.06
2022-11-27T23:04:27.006Z,102185.38
2022-11-27T23:06:55.410Z,102190.47
2022-11-27T23:09:23.731Z,102181.78
2022-11-27T23:11:52.029Z,102188.75
2022-11-27T23:14:20.716Z,102191.50
2022-11-27T23:16:49.099Z,102197.81
2022-11-27T23:19:21.183Z,102195.94
2022-11-27T23:21:49.587Z,102200.38
2022-11-27T23:24:17.811Z,102197.66
2022-11-27T23:26:46.180Z,102194.91
2022-11-27T23:29:14.697Z,102206.00
2022-11-27T23:31:43.330Z,102193.53
2022-11-27T23:34:15.632Z,102206.88
2022-11-27T23:36:45.376Z,102205.84
2022-11-27T23:39:14.521Z,102203.13
2022-11-27T23:41:43.092Z,102211.94
2022-11-27T23:44:11.366Z,102215.75
2022-11-27T23:46:39.544Z,102208.94
2022-11-27T23:49:07.948Z,102219.53
2022-11-27T23:51:36.206Z,102212.34
2022-11-27T23:54:08.577Z,102223.59
2022-11-27T23:56:36.784Z,102217.28
2022-11-27T23:59:05.541Z,102221.16
